sensor_id;sensor_type;location;lat;lon;timestamp;temperature;humidity
15288;DHT22;7745;48.708;9.026;2023-09-19T00:01:39;16.60;99.90
15288;DHT22;7745;48.708;9.026;2023-09-19T00:04:07;16.60;99.90
15288;DHT22;7745;48.708;9.026;2023-09-19T00:06:35;16.60;99.90
15288;DHT22;7745;48.708;9.026;2023-09-19T00:09:02;16.60;99.90
15288;DHT22;7745;48.708;9.026;2023-09-19T00:11:29;16.60;99.90
15288;DHT22;7745;48.708;9.026;2023-09-19T00:13:56;16.50;99.90
15288;DHT22;7745;48.708;9.026;2023-09-19T00:16:24;16.50;99.90
15288;DHT22;7745;48.708;9.026;2023-09-19T00:18:51;16.50;99.90
15288;DHT22;7745;48.708;9.026;2023-09-19T00:21:19;16.50;99.90
15288;DHT22;7745;48.708;9.026;2023-09-19T00:23:46;16.40;99.90
15288;DHT22;7745;48.708;9.026;2023-09-19T00:26:13;16.40;99.90
15288;DHT22;7745;48.708;9.026;2023-09-19T00:28:40;16.50;99.90
15288;DHT22;7745;48.708;9.026;2023-09-19T00:31:08;16.50;99.90
15288;DHT22;7745;48.708;9.026;2023-09-19T00:33:35;16.50;99.90
15288;DHT22;7745;48.708;9.026;2023-09-19T00:36:02;16.40;99.90
15288;DHT22;7745;48.708;9.026;2023-09-19T00:38:32;16.40;99.90
15288;DHT22;7745;48.708;9.026;2023-09-19T00:40:58;16.40;99.90
15288;DHT22;7745;48.708;9.026;2023-09-19T00:43:26;16.40;99.90
15288;DHT22;7745;48.708;9.026;2023-09-19T00:45:54;16.40;99.90
15288;DHT22;7745;48.708;9.026;2023-09-19T00:48:22;16.40;99.90
15288;DHT22;7745;48.708;9.026;2023-09-19T00:50:50;16.40;99.90
15288;DHT22;7745;48.708;9.026;2023-09-19T00:53:21;16.40;99.90
15288;DHT22;7745;48.708;9.026;2023-09-19T00:55:49;16.30;99.90
15288;DHT22;7745;48.708;9.026;2023-09-19T00:58:17;16.40;99.90
15288;DHT22;7745;48.708;9.026;2023-09-19T01:00:44;16.30;99.90
15288;DHT22;7745;48.708;9.026;2023-09-19T01:03:11;16.30;99.90
15288;DHT22;7745;48.708;9.026;2023-09-19T01:05:40;16.30;99.90
15288;DHT22;7745;48.708;9.026;2023-09-19T01:08:07;16.30;99.90
15288;DHT22;7745;48.708;9.026;2023-09-19T01:10:38;16.30;99.90
15288;DHT22;7745;48.708;9.026;2023-09-19T01:13:17;16.30;99.90
15288;DHT22;7745;48.708;9.026;2023-09-19T01:15:54;16.30;99.90
15288;DHT22;7745;48.708;9.026;2023-09-19T01:18:40;16.30;99.90
15288;DHT22;7745;48.708;9.026;2023-09-19T01:21:15;16.30;99.90
15288;DHT22;7745;48.708;9.026;2023-09-19T01:24:10;16.30;99.90
15288;DHT22;7745;48.708;9.026;2023-09-19T01:27:14;16.30;99.90
15288;DHT22;7745;48.708;9.026;2023-09-19T01:29:46;16.30;99.90
15288;DHT22;7745;48.708;9.026;2023-09-19T01:32:17;16.30;99.90
15288;DHT22;7745;48.708;9.026;2023-09-19T01:34:47;16.30;99.90
15288;DHT22;7745;48.708;9.026;2023-09-19T01:37:16;16.20;99.90
15288;DHT22;7745;48.708;9.026;2023-09-19T01:39:46;16.20;99.90
15288;DHT22;7745;48.708;9.026;2023-09-19T01:42:21;16.20;99.90
15288;DHT22;7745;48.708;9.026;2023-09-19T01:44:57;16.20;99.90
15288;DHT22;7745;48.708;9.026;2023-09-19T01:47:34;16.20;99.90
15288;DHT22;7745;48.708;9.026;2023-09-19T01:50:07;16.20;99.90
15288;DHT22;7745;48.708;9.026;2023-09-19T01:52:45;16.10;99.90
15288;DHT22;7745;48.708;9.026;2023-09-19T01:55:14;16.30;99.90
15288;DHT22;7745;48.708;9.026;2023-09-19T01:57:49;16.10;99.90
15288;DHT22;7745;48.708;9.026;2023-09-19T02:00:20;16.10;99.90
15288;DHT22;7745;48.708;9.026;2023-09-19T02:02:50;16.00;99.90
15288;DHT22;7745;48.708;9.026;2023-09-19T02:05:22;16.00;99.90
15288;DHT22;7745;48.708;9.026;2023-09-19T02:07:50;15.90;99.90
15288;DHT22;7745;48.708;9.026;2023-09-19T02:10:16;15.90;99.90
15288;DHT22;7745;48.708;9.026;2023-09-19T02:12:43;15.80;99.90
15288;DHT22;7745;48.708;9.026;2023-09-19T02:15:10;15.80;99.90
15288;DHT22;7745;48.708;9.026;2023-09-19T02:17:37;15.80;99.90
15288;DHT22;7745;48.708;9.026;2023-09-19T02:20:07;15.80;99.90
15288;DHT22;7745;48.708;9.026;2023-09-19T02:22:36;15.70;99.90
15288;DHT22;7745;48.708;9.026;2023-09-19T02:25:04;15.70;99.90
15288;DHT22;7745;48.708;9.026;2023-09-19T02:27:32;15.70;99.90
15288;DHT22;7745;48.708;9.026;2023-09-19T02:29:59;15.70;99.90
15288;DHT22;7745;48.708;9.026;2023-09-19T02:32:30;15.70;99.90
15288;DHT22;7745;48.708;9.026;2023-09-19T02:34:57;15.80;99.90
15288;DHT22;7745;48.708;9.026;2023-09-19T02:37:26;15.70;99.90
15288;DHT22;7745;48.708;9.026;2023-09-19T02:39:52;15.70;99.90
15288;DHT22;7745;48.708;9.026;2023-09-19T02:42:19;15.70;99.90
15288;DHT22;7745;48.708;9.026;2023-09-19T02:44:46;15.70;99.90
15288;DHT22;7745;48.708;9.026;2023-09-19T02:47:13;15.60;99.90
15288;DHT22;7745;48.708;9.026;2023-09-19T02:49:42;15.60;99.90
15288;DHT22;7745;48.708;9.026;2023-09-19T02:52:09;15.60;99.90
15288;DHT22;7745;48.708;9.026;2023-09-19T02:54:38;15.70;99.90
15288;DHT22;7745;48.708;9.026;2023-09-19T02:57:05;15.70;99.90
15288;DHT22;7745;48.708;9.026;2023-09-19T02:59:33;15.70;99.90
15288;DHT22;7745;48.708;9.026;2023-09-19T03:02:02;15.80;99.90
15288;DHT22;7745;48.708;9.026;2023-09-19T03:04:30;15.80;99.90
15288;DHT22;7745;48.708;9.026;2023-09-19T03:06:58;15.80;99.90
15288;DHT22;7745;48.708;9.026;2023-09-19T03:09:26;15.90;99.90
15288;DHT22;7745;48.708;9.026;2023-09-19T03:11:54;15.90;99.90
15288;DHT22;7745;48.708;9.026;2023-09-19T03:14:22;15.90;99.90
15288;DHT22;7745;48.708;9.026;2023-09-19T03:16:48;15.90;99.90
15288;DHT22;7745;48.708;9.026;2023-09-19T03:19:16;15.90;99.90
15288;DHT22;7745;48.708;9.026;2023-09-19T03:21:42;15.90;99.90
15288;DHT22;7745;48.708;9.026;2023-09-19T03:24:09;16.00;99.90
15288;DHT22;7745;48.708;9.026;2023-09-19T03:26:37;16.00;99.90
15288;DHT22;7745;48.708;9.026;2023-09-19T03:29:05;16.00;99.90
15288;DHT22;7745;48.708;9.026;2023-09-19T03:31:34;16.00;99.90
15288;DHT22;7745;48.708;9.026;2023-09-19T03:34:03;16.00;99.90
15288;DHT22;7745;48.708;9.026;2023-09-19T03:36:30;16.10;99.90
15288;DHT22;7745;48.708;9.026;2023-09-19T03:38:59;16.10;99.90
15288;DHT22;7745;48.708;9.026;2023-09-19T03:41:26;16.10;99.90
15288;DHT22;7745;48.708;9.026;2023-09-19T03:43:53;16.10;99.90
15288;DHT22;7745;48.708;9.026;2023-09-19T03:46:21;16.10;99.90
15288;DHT22;7745;48.708;9.026;2023-09-19T03:48:48;16.10;99.90
15288;DHT22;7745;48.708;9.026;2023-09-19T03:51:15;16.10;99.90
15288;DHT22;7745;48.708;9.026;2023-09-19T03:53:42;16.10;99.90
15288;DHT22;7745;48.708;9.026;2023-09-19T03:56:09;16.00;99.90
15288;DHT22;7745;48.708;9.026;2023-09-19T03:58:36;16.00;99.90
15288;DHT22;7745;48.708;9.026;2023-09-19T04:01:04;16.00;99.90
15288;DHT22;7745;48.708;9.026;2023-09-19T04:03:33;16.00;99.90
15288;DHT22;7745;48.708;9.026;2023-09-19T04:06:11;16.10;99.90
15288;DHT22;7745;48.708;9.026;2023-09-19T04:08:38;16.00;99.90
15288;DHT22;7745;48.708;9.026;2023-09-19T04:11:05;16.00;99.90
15288;DHT22;7745;48.708;9.026;2023-09-19T04:13:31;16.00;99.90
15288;DHT22;7745;48.708;9.026;2023-09-19T04:15:58;16.00;99.90
15288;DHT22;7745;48.708;9.026;2023-09-19T04:18:25;15.90;99.90
15288;DHT22;7745;48.708;9.026;2023-09-19T04:20:54;16.10;99.90
15288;DHT22;7745;48.708;9.026;2023-09-19T04:23:21;16.10;99.90
15288;DHT22;7745;48.708;9.026;2023-09-19T04:25:48;16.10;99.90
15288;DHT22;7745;48.708;9.026;2023-09-19T04:28:16;16.10;99.90
15288;DHT22;7745;48.708;9.026;2023-09-19T04:30:43;16.20;99.90
15288;DHT22;7745;48.708;9.026;2023-09-19T04:33:10;16.20;99.90
15288;DHT22;7745;48.708;9.026;2023-09-19T04:35:37;16.20;99.90
15288;DHT22;7745;48.708;9.026;2023-09-19T04:38:05;16.20;99.90
15288;DHT22;7745;48.708;9.026;2023-09-19T04:40:32;16.20;99.90
15288;DHT22;7745;48.708;9.026;2023-09-19T04:42:59;16.20;99.90
15288;DHT22;7745;48.708;9.026;2023-09-19T04:45:27;16.20;99.90
15288;DHT22;7745;48.708;9.026;2023-09-19T04:47:54;16.20;99.90
15288;DHT22;7745;48.708;9.026;2023-09-19T04:50:21;16.20;99.90
15288;DHT22;7745;48.708;9.026;2023-09-19T04:52:50;16.20;99.90
15288;DHT22;7745;48.708;9.026;2023-09-19T04:55:21;16.20;99.90
15288;DHT22;7745;48.708;9.026;2023-09-19T04:57:49;16.20;99.90
15288;DHT22;7745;48.708;9.026;2023-09-19T05:00:19;16.10;99.90
15288;DHT22;7745;48.708;9.026;2023-09-19T05:02:49;16.10;99.90
15288;DHT22;7745;48.708;9.026;2023-09-19T05:05:16;16.00;99.90
15288;DHT22;7745;48.708;9.026;2023-09-19T05:07:44;16.00;99.90
15288;DHT22;7745;48.708;9.026;2023-09-19T05:10:12;15.90;99.90
15288;DHT22;7745;48.708;9.026;2023-09-19T05:12:41;15.90;99.90
15288;DHT22;7745;48.708;9.026;2023-09-19T05:15:10;15.80;99.90
15288;DHT22;7745;48.708;9.026;2023-09-19T05:17:37;15.80;99.90
15288;DHT22;7745;48.708;9.026;2023-09-19T05:20:06;15.80;99.90
15288;DHT22;7745;48.708;9.026;2023-09-19T05:22:50;15.80;99.90
15288;DHT22;7745;48.708;9.026;2023-09-19T05:25:16;15.80;99.90
15288;DHT22;7745;48.708;9.026;2023-09-19T05:27:45;15.80;99.90
15288;DHT22;7745;48.708;9.026;2023-09-19T05:30:12;15.80;99.90
15288;DHT22;7745;48.708;9.026;2023-09-19T05:32:41;15.80;99.90
15288;DHT22;7745;48.708;9.026;2023-09-19T05:35:12;15.80;99.90
15288;DHT22;7745;48.708;9.026;2023-09-19T05:37:39;15.80;99.90
15288;DHT22;7745;48.708;9.026;2023-09-19T05:40:06;15.90;99.90
15288;DHT22;7745;48.708;9.026;2023-09-19T05:42:35;15.90;99.90
15288;DHT22;7745;48.708;9.026;2023-09-19T05:45:05;15.90;99.90
15288;DHT22;7745;48.708;9.026;2023-09-19T05:47:32;16.00;99.90
15288;DHT22;7745;48.708;9.026;2023-09-19T05:49:59;16.00;99.90
15288;DHT22;7745;48.708;9.026;2023-09-19T05:52:26;16.00;99.90
15288;DHT22;7745;48.708;9.026;2023-09-19T05:54:53;16.00;99.90
15288;DHT22;7745;48.708;9.026;2023-09-19T05:57:22;16.00;99.90
15288;DHT22;7745;48.708;9.026;2023-09-19T05:59:50;15.80;99.90
15288;DHT22;7745;48.708;9.026;2023-09-19T06:02:18;15.60;99.90
15288;DHT22;7745;48.708;9.026;2023-09-19T06:04:45;15.50;99.90
15288;DHT22;7745;48.708;9.026;2023-09-19T06:07:12;15.40;99.90
15288;DHT22;7745;48.708;9.026;2023-09-19T06:09:39;15.30;99.90
15288;DHT22;7745;48.708;9.026;2023-09-19T06:12:06;15.20;99.90
15288;DHT22;7745;48.708;9.026;2023-09-19T06:14:33;15.10;99.90
15288;DHT22;7745;48.708;9.026;2023-09-19T06:17:00;15.00;99.90
15288;DHT22;7745;48.708;9.026;2023-09-19T06:19:28;15.00;99.90
15288;DHT22;7745;48.708;9.026;2023-09-19T06:21:54;15.20;99.90
15288;DHT22;7745;48.708;9.026;2023-09-19T06:24:21;15.10;99.90
15288;DHT22;7745;48.708;9.026;2023-09-19T06:26:48;15.20;99.90
15288;DHT22;7745;48.708;9.026;2023-09-19T06:29:15;15.20;99.90
15288;DHT22;7745;48.708;9.026;2023-09-19T06:31:41;15.30;99.90
15288;DHT22;7745;48.708;9.026;2023-09-19T06:34:10;15.30;99.90
15288;DHT22;7745;48.708;9.026;2023-09-19T06:36:38;15.40;99.90
15288;DHT22;7745;48.708;9.026;2023-09-19T06:39:06;15.40;99.90
15288;DHT22;7745;48.708;9.026;2023-09-19T06:41:36;15.50;99.90
15288;DHT22;7745;48.708;9.026;2023-09-19T06:44:04;15.50;99.90
15288;DHT22;7745;48.708;9.026;2023-09-19T06:46:31;15.60;99.90
15288;DHT22;7745;48.708;9.026;2023-09-19T06:49:00;15.70;99.90
15288;DHT22;7745;48.708;9.026;2023-09-19T06:51:31;15.80;99.90
15288;DHT22;7745;48.708;9.026;2023-09-19T06:54:01;15.90;99.90
15288;DHT22;7745;48.708;9.026;2023-09-19T06:56:28;16.10;99.90
15288;DHT22;7745;48.708;9.026;2023-09-19T06:58:54;16.00;99.90
15288;DHT22;7745;48.708;9.026;2023-09-19T07:01:21;16.00;99.90
15288;DHT22;7745;48.708;9.026;2023-09-19T07:03:48;16.20;99.90
15288;DHT22;7745;48.708;9.026;2023-09-19T07:06:15;16.20;99.90
15288;DHT22;7745;48.708;9.026;2023-09-19T07:08:41;16.10;99.90
15288;DHT22;7745;48.708;9.026;2023-09-19T07:11:10;16.20;99.90
15288;DHT22;7745;48.708;9.026;2023-09-19T07:13:37;16.20;99.90
15288;DHT22;7745;48.708;9.026;2023-09-19T07:16:04;16.20;99.90
15288;DHT22;7745;48.708;9.026;2023-09-19T07:18:31;16.20;99.90
15288;DHT22;7745;48.708;9.026;2023-09-19T07:20:58;16.30;99.90
15288;DHT22;7745;48.708;9.026;2023-09-19T07:23:30;16.30;99.90
15288;DHT22;7745;48.708;9.026;2023-09-19T07:26:00;16.40;99.90
15288;DHT22;7745;48.708;9.026;2023-09-19T07:28:32;16.40;99.90
15288;DHT22;7745;48.708;9.026;2023-09-19T07:31:01;16.50;99.90
15288;DHT22;7745;48.708;9.026;2023-09-19T07:33:30;16.50;99.90
15288;DHT22;7745;48.708;9.026;2023-09-19T07:35:57;16.60;99.90
15288;DHT22;7745;48.708;9.026;2023-09-19T07:38:24;16.60;99.90
15288;DHT22;7745;48.708;9.026;2023-09-19T07:40:52;16.60;99.90
15288;DHT22;7745;48.708;9.026;2023-09-19T07:43:19;16.60;99.90
15288;DHT22;7745;48.708;9.026;2023-09-19T07:45:48;16.70;99.90
15288;DHT22;7745;48.708;9.026;2023-09-19T07:48:15;16.70;99.90
15288;DHT22;7745;48.708;9.026;2023-09-19T07:50:42;16.70;99.90
15288;DHT22;7745;48.708;9.026;2023-09-19T07:53:10;16.80;99.90
15288;DHT22;7745;48.708;9.026;2023-09-19T07:55:38;16.80;99.90
15288;DHT22;7745;48.708;9.026;2023-09-19T07:58:06;16.90;99.90
15288;DHT22;7745;48.708;9.026;2023-09-19T08:00:33;17.00;99.90
15288;DHT22;7745;48.708;9.026;2023-09-19T08:03:02;17.00;99.90
15288;DHT22;7745;48.708;9.026;2023-09-19T08:05:29;17.20;99.90
15288;DHT22;7745;48.708;9.026;2023-09-19T08:07:56;17.30;99.90
15288;DHT22;7745;48.708;9.026;2023-09-19T08:10:24;17.40;99.90
15288;DHT22;7745;48.708;9.026;2023-09-19T08:12:53;17.50;99.90
15288;DHT22;7745;48.708;9.026;2023-09-19T08:15:23;17.40;99.90
15288;DHT22;7745;48.708;9.026;2023-09-19T08:17:50;17.50;99.90
15288;DHT22;7745;48.708;9.026;2023-09-19T08:20:18;17.50;99.90
15288;DHT22;7745;48.708;9.026;2023-09-19T08:22:47;17.50;99.90
15288;DHT22;7745;48.708;9.026;2023-09-19T08:25:15;17.60;99.90
15288;DHT22;7745;48.708;9.026;2023-09-19T08:27:44;17.60;99.90
15288;DHT22;7745;48.708;9.026;2023-09-19T08:30:14;17.80;99.90
15288;DHT22;7745;48.708;9.026;2023-09-19T08:32:41;17.90;99.90
15288;DHT22;7745;48.708;9.026;2023-09-19T08:35:08;18.00;99.90
15288;DHT22;7745;48.708;9.026;2023-09-19T08:37:37;18.10;99.90
15288;DHT22;7745;48.708;9.026;2023-09-19T08:40:04;18.00;99.90
15288;DHT22;7745;48.708;9.026;2023-09-19T08:42:47;18.10;99.90
15288;DHT22;7745;48.708;9.026;2023-09-19T08:45:15;18.20;99.90
15288;DHT22;7745;48.708;9.026;2023-09-19T08:47:46;18.40;99.90
15288;DHT22;7745;48.708;9.026;2023-09-19T08:50:19;18.50;99.90
15288;DHT22;7745;48.708;9.026;2023-09-19T08:52:51;18.60;99.90
15288;DHT22;7745;48.708;9.026;2023-09-19T08:55:19;18.80;99.90
15288;DHT22;7745;48.708;9.026;2023-09-19T08:57:49;18.90;99.90
15288;DHT22;7745;48.708;9.026;2023-09-19T09:00:17;18.90;99.90
15288;DHT22;7745;48.708;9.026;2023-09-19T09:02:47;18.90;99.90
15288;DHT22;7745;48.708;9.026;2023-09-19T09:05:15;18.90;99.90
15288;DHT22;7745;48.708;9.026;2023-09-19T09:07:49;19.00;99.90
15288;DHT22;7745;48.708;9.026;2023-09-19T09:10:17;19.10;99.90
15288;DHT22;7745;48.708;9.026;2023-09-19T09:12:48;19.10;99.90
15288;DHT22;7745;48.708;9.026;2023-09-19T09:15:16;19.00;99.90
15288;DHT22;7745;48.708;9.026;2023-09-19T09:17:46;18.90;99.90
15288;DHT22;7745;48.708;9.026;2023-09-19T09:20:14;18.80;99.90
15288;DHT22;7745;48.708;9.026;2023-09-19T09:22:51;18.70;99.90
15288;DHT22;7745;48.708;9.026;2023-09-19T09:25:20;18.60;99.90
15288;DHT22;7745;48.708;9.026;2023-09-19T09:27:58;18.50;99.90
15288;DHT22;7745;48.708;9.026;2023-09-19T09:30:33;18.50;99.90
15288;DHT22;7745;48.708;9.026;2023-09-19T09:33:08;18.50;99.90
15288;DHT22;7745;48.708;9.026;2023-09-19T09:35:36;18.50;99.90
15288;DHT22;7745;48.708;9.026;2023-09-19T09:38:05;18.50;99.90
15288;DHT22;7745;48.708;9.026;2023-09-19T09:40:46;18.50;99.90
15288;DHT22;7745;48.708;9.026;2023-09-19T09:43:29;18.50;99.90
15288;DHT22;7745;48.708;9.026;2023-09-19T09:46:18;18.60;99.90
15288;DHT22;7745;48.708;9.026;2023-09-19T09:49:10;18.60;99.90
15288;DHT22;7745;48.708;9.026;2023-09-19T09:52:00;18.70;99.90
15288;DHT22;7745;48.708;9.026;2023-09-19T09:54:33;18.80;99.90
15288;DHT22;7745;48.708;9.026;2023-09-19T09:57:03;19.10;99.90
15288;DHT22;7745;48.708;9.026;2023-09-19T09:59:50;19.30;99.90
15288;DHT22;7745;48.708;9.026;2023-09-19T10:02:20;19.40;99.90
15288;DHT22;7745;48.708;9.026;2023-09-19T10:04:50;19.70;99.90
15288;DHT22;7745;48.708;9.026;2023-09-19T10:07:31;20.00;99.90
15288;DHT22;7745;48.708;9.026;2023-09-19T10:10:03;20.10;99.90
15288;DHT22;7745;48.708;9.026;2023-09-19T10:12:43;20.20;99.90
15288;DHT22;7745;48.708;9.026;2023-09-19T10:15:15;20.20;99.90
15288;DHT22;7745;48.708;9.026;2023-09-19T10:17:43;20.30;99.90
15288;DHT22;7745;48.708;9.026;2023-09-19T10:20:13;20.50;99.90
15288;DHT22;7745;48.708;9.026;2023-09-19T10:22:48;20.60;99.90
15288;DHT22;7745;48.708;9.026;2023-09-19T10:25:25;20.70;99.90
15288;DHT22;7745;48.708;9.026;2023-09-19T10:27:54;20.90;99.90
15288;DHT22;7745;48.708;9.026;2023-09-19T10:30:24;21.00;99.90
15288;DHT22;7745;48.708;9.026;2023-09-19T10:33:00;21.00;99.90
15288;DHT22;7745;48.708;9.026;2023-09-19T10:35:28;21.00;99.90
15288;DHT22;7745;48.708;9.026;2023-09-19T10:37:59;21.00;99.90
15288;DHT22;7745;48.708;9.026;2023-09-19T10:40:28;21.00;99.90
15288;DHT22;7745;48.708;9.026;2023-09-19T10:43:03;21.10;99.90
15288;DHT22;7745;48.708;9.026;2023-09-19T10:45:31;21.20;99.90
15288;DHT22;7745;48.708;9.026;2023-09-19T10:47:58;21.20;99.90
15288;DHT22;7745;48.708;9.026;2023-09-19T10:50:27;21.10;99.90
15288;DHT22;7745;48.708;9.026;2023-09-19T10:53:00;21.30;99.90
15288;DHT22;7745;48.708;9.026;2023-09-19T10:55:32;21.20;99.90
15288;DHT22;7745;48.708;9.026;2023-09-19T10:58:01;21.10;99.90
15288;DHT22;7745;48.708;9.026;2023-09-19T11:00:53;21.20;99.90
15288;DHT22;7745;48.708;9.026;2023-09-19T11:03:21;21.10;99.90
15288;DHT22;7745;48.708;9.026;2023-09-19T11:06:12;21.00;99.90
15288;DHT22;7745;48.708;9.026;2023-09-19T11:09:00;21.20;99.90
15288;DHT22;7745;48.708;9.026;2023-09-19T11:11:50;21.20;99.90
15288;DHT22;7745;48.708;9.026;2023-09-19T11:14:37;21.30;99.90
15288;DHT22;7745;48.708;9.026;2023-09-19T11:20:30;21.40;99.90
15288;DHT22;7745;48.708;9.026;2023-09-19T11:23:18;21.40;99.90
15288;DHT22;7745;48.708;9.026;2023-09-19T11:25:44;21.30;99.90
15288;DHT22;7745;48.708;9.026;2023-09-19T11:28:37;21.30;99.90
15288;DHT22;7745;48.708;9.026;2023-09-19T11:34:42;21.10;99.90
15288;DHT22;7745;48.708;9.026;2023-09-19T11:40:36;21.00;99.90
15288;DHT22;7745;48.708;9.026;2023-09-19T11:43:32;20.80;99.90
15288;DHT22;7745;48.708;9.026;2023-09-19T11:46:06;20.80;99.90
15288;DHT22;7745;48.708;9.026;2023-09-19T11:48:32;20.80;99.90
15288;DHT22;7745;48.708;9.026;2023-09-19T11:51:16;20.70;99.90
15288;DHT22;7745;48.708;9.026;2023-09-19T11:53:48;20.80;99.90
15288;DHT22;7745;48.708;9.026;2023-09-19T11:56:16;20.70;99.90
15288;DHT22;7745;48.708;9.026;2023-09-19T11:58:44;20.60;99.90
15288;DHT22;7745;48.708;9.026;2023-09-19T12:01:15;20.60;99.90
15288;DHT22;7745;48.708;9.026;2023-09-19T12:03:47;20.60;99.90
15288;DHT22;7745;48.708;9.026;2023-09-19T12:06:15;20.80;99.90
15288;DHT22;7745;48.708;9.026;2023-09-19T12:08:42;20.90;99.90
15288;DHT22;7745;48.708;9.026;2023-09-19T12:11:13;20.80;99.90
15288;DHT22;7745;48.708;9.026;2023-09-19T12:13:44;21.00;99.90
15288;DHT22;7745;48.708;9.026;2023-09-19T12:16:14;20.80;99.90
15288;DHT22;7745;48.708;9.026;2023-09-19T12:18:42;20.70;99.90
15288;DHT22;7745;48.708;9.026;2023-09-19T12:21:27;20.70;99.90
15288;DHT22;7745;48.708;9.026;2023-09-19T12:24:04;20.70;99.90
15288;DHT22;7745;48.708;9.026;2023-09-19T12:26:38;20.80;99.90
15288;DHT22;7745;48.708;9.026;2023-09-19T12:29:11;20.80;99.90
15288;DHT22;7745;48.708;9.026;2023-09-19T12:31:51;20.90;99.90
15288;DHT22;7745;48.708;9.026;2023-09-19T12:34:21;21.00;99.90
15288;DHT22;7745;48.708;9.026;2023-09-19T12:37:03;21.10;99.90
15288;DHT22;7745;48.708;9.026;2023-09-19T12:39:30;21.30;99.90
15288;DHT22;7745;48.708;9.026;2023-09-19T12:41:57;21.30;99.90
15288;DHT22;7745;48.708;9.026;2023-09-19T12:44:24;21.20;99.90
15288;DHT22;7745;48.708;9.026;2023-09-19T12:46:53;21.30;99.90
15288;DHT22;7745;48.708;9.026;2023-09-19T12:49:20;21.30;99.90
15288;DHT22;7745;48.708;9.026;2023-09-19T12:51:48;21.30;99.90
15288;DHT22;7745;48.708;9.026;2023-09-19T12:54:15;21.40;99.90
15288;DHT22;7745;48.708;9.026;2023-09-19T12:56:43;21.40;99.90
15288;DHT22;7745;48.708;9.026;2023-09-19T12:59:13;21.50;99.90
15288;DHT22;7745;48.708;9.026;2023-09-19T13:01:40;21.50;99.90
15288;DHT22;7745;48.708;9.026;2023-09-19T13:04:14;21.60;99.90
15288;DHT22;7745;48.708;9.026;2023-09-19T13:06:44;21.60;99.90
15288;DHT22;7745;48.708;9.026;2023-09-19T13:09:11;21.60;99.90
15288;DHT22;7745;48.708;9.026;2023-09-19T13:11:40;21.50;99.90
15288;DHT22;7745;48.708;9.026;2023-09-19T13:14:18;21.40;99.90
15288;DHT22;7745;48.708;9.026;2023-09-19T13:17:01;21.30;99.90
15288;DHT22;7745;48.708;9.026;2023-09-19T13:19:37;21.40;99.90
15288;DHT22;7745;48.708;9.026;2023-09-19T13:22:05;21.60;99.90
15288;DHT22;7745;48.708;9.026;2023-09-19T13:24:34;21.60;99.90
15288;DHT22;7745;48.708;9.026;2023-09-19T13:27:05;21.70;99.90
15288;DHT22;7745;48.708;9.026;2023-09-19T13:29:32;21.80;99.90
15288;DHT22;7745;48.708;9.026;2023-09-19T13:31:59;21.90;99.90
15288;DHT22;7745;48.708;9.026;2023-09-19T13:34:27;21.80;99.90
15288;DHT22;7745;48.708;9.026;2023-09-19T13:36:56;21.80;99.90
15288;DHT22;7745;48.708;9.026;2023-09-19T13:39:23;21.70;99.90
15288;DHT22;7745;48.708;9.026;2023-09-19T13:41:50;21.70;99.90
15288;DHT22;7745;48.708;9.026;2023-09-19T13:44:17;21.80;99.90
15288;DHT22;7745;48.708;9.026;2023-09-19T13:46:44;21.90;99.90
15288;DHT22;7745;48.708;9.026;2023-09-19T13:49:11;22.00;99.90
15288;DHT22;7745;48.708;9.026;2023-09-19T13:51:38;21.90;99.90
15288;DHT22;7745;48.708;9.026;2023-09-19T13:54:10;22.00;99.90
15288;DHT22;7745;48.708;9.026;2023-09-19T13:56:38;22.10;99.90
15288;DHT22;7745;48.708;9.026;2023-09-19T13:59:05;22.10;99.90
15288;DHT22;7745;48.708;9.026;2023-09-19T14:01:32;22.10;99.90
15288;DHT22;7745;48.708;9.026;2023-09-19T14:03:58;22.10;99.90
15288;DHT22;7745;48.708;9.026;2023-09-19T14:06:25;22.00;99.90
15288;DHT22;7745;48.708;9.026;2023-09-19T14:08:52;22.00;99.90
15288;DHT22;7745;48.708;9.026;2023-09-19T14:11:20;22.20;99.90
15288;DHT22;7745;48.708;9.026;2023-09-19T14:13:47;21.90;99.90
15288;DHT22;7745;48.708;9.026;2023-09-19T14:16:17;22.10;99.90
15288;DHT22;7745;48.708;9.026;2023-09-19T14:18:44;22.20;99.90
15288;DHT22;7745;48.708;9.026;2023-09-19T14:21:12;22.30;99.90
15288;DHT22;7745;48.708;9.026;2023-09-19T14:23:40;22.20;99.90
15288;DHT22;7745;48.708;9.026;2023-09-19T14:26:08;22.10;99.90
15288;DHT22;7745;48.708;9.026;2023-09-19T14:28:37;22.10;99.90
15288;DHT22;7745;48.708;9.026;2023-09-19T14:31:05;22.10;99.90
15288;DHT22;7745;48.708;9.026;2023-09-19T14:33:32;22.20;99.90
15288;DHT22;7745;48.708;9.026;2023-09-19T14:36:02;22.40;99.90
15288;DHT22;7745;48.708;9.026;2023-09-19T14:38:29;22.40;99.90
15288;DHT22;7745;48.708;9.026;2023-09-19T14:41:00;22.30;99.90
15288;DHT22;7745;48.708;9.026;2023-09-19T14:43:27;22.40;99.90
15288;DHT22;7745;48.708;9.026;2023-09-19T14:45:57;22.40;99.90
15288;DHT22;7745;48.708;9.026;2023-09-19T14:48:24;22.40;99.90
15288;DHT22;7745;48.708;9.026;2023-09-19T14:50:51;22.40;99.90
15288;DHT22;7745;48.708;9.026;2023-09-19T14:53:18;22.40;99.90
15288;DHT22;7745;48.708;9.026;2023-09-19T14:55:45;22.30;99.90
15288;DHT22;7745;48.708;9.026;2023-09-19T14:58:13;22.30;99.90
15288;DHT22;7745;48.708;9.026;2023-09-19T15:00:40;22.30;99.90
15288;DHT22;7745;48.708;9.026;2023-09-19T15:03:08;22.10;99.90
15288;DHT22;7745;48.708;9.026;2023-09-19T15:05:35;22.00;99.90
15288;DHT22;7745;48.708;9.026;2023-09-19T15:08:02;22.10;99.90
15288;DHT22;7745;48.708;9.026;2023-09-19T15:10:29;22.00;99.90
15288;DHT22;7745;48.708;9.026;2023-09-19T15:12:56;21.90;99.90
15288;DHT22;7745;48.708;9.026;2023-09-19T15:15:23;21.90;99.90
15288;DHT22;7745;48.708;9.026;2023-09-19T15:17:49;21.90;99.90
15288;DHT22;7745;48.708;9.026;2023-09-19T15:20:18;21.90;99.90
15288;DHT22;7745;48.708;9.026;2023-09-19T15:22:44;21.80;99.90
15288;DHT22;7745;48.708;9.026;2023-09-19T15:25:11;21.70;99.90
15288;DHT22;7745;48.708;9.026;2023-09-19T15:27:38;21.70;99.90
15288;DHT22;7745;48.708;9.026;2023-09-19T15:30:08;21.70;99.90
15288;DHT22;7745;48.708;9.026;2023-09-19T15:32:36;21.70;99.90
15288;DHT22;7745;48.708;9.026;2023-09-19T15:35:03;21.70;99.90
15288;DHT22;7745;48.708;9.026;2023-09-19T15:37:32;21.80;99.90
15288;DHT22;7745;48.708;9.026;2023-09-19T15:39:59;21.80;99.90
15288;DHT22;7745;48.708;9.026;2023-09-19T15:42:26;21.80;99.90
15288;DHT22;7745;48.708;9.026;2023-09-19T15:44:52;21.90;99.90
15288;DHT22;7745;48.708;9.026;2023-09-19T15:47:20;21.80;99.90
15288;DHT22;7745;48.708;9.026;2023-09-19T15:49:47;21.70;99.90
15288;DHT22;7745;48.708;9.026;2023-09-19T15:52:17;21.80;99.90
15288;DHT22;7745;48.708;9.026;2023-09-19T15:54:45;21.60;99.90
15288;DHT22;7745;48.708;9.026;2023-09-19T15:57:12;21.50;99.90
15288;DHT22;7745;48.708;9.026;2023-09-19T15:59:39;21.60;99.90
15288;DHT22;7745;48.708;9.026;2023-09-19T16:02:06;21.60;99.90
15288;DHT22;7745;48.708;9.026;2023-09-19T16:04:33;21.50;99.90
15288;DHT22;7745;48.708;9.026;2023-09-19T16:07:00;21.50;99.90
15288;DHT22;7745;48.708;9.026;2023-09-19T16:09:27;21.50;99.90
15288;DHT22;7745;48.708;9.026;2023-09-19T16:11:56;21.50;99.90